sensor_id;sensor_type;location;lat;lon;timestamp;noise_LAeq;noise_LA_min;noise_LA_max;noise_LA01;noise_LA95
61249;Laerm;47119;49.130;9.218;2023-08-01T00:00:17;52.48;46.35;62.81;;
61249;Laerm;47119;49.130;9.218;2023-08-01T00:02:48;55.28;46.78;62.13;;
61249;Laerm;47119;49.130;9.218;2023-08-01T00:05:15;52.52;46.27;67.80;;
61249;Laerm;47119;49.130;9.218;2023-08-01T00:07:44;48.09;46.24;56.50;;
61249;Laerm;47119;49.130;9.218;2023-08-01T00:10:11;48.77;46.51;55.17;;
61249;Laerm;47119;49.130;9.218;2023-08-01T00:12:38;49.06;47.09;52.71;;
61249;Laerm;47119;49.130;9.218;2023-08-01T00:15:07;49.15;47.28;54.84;;
61249;Laerm;47119;49.130;9.218;2023-08-01T00:17:34;51.29;47.57;59.76;;
61249;Laerm;47119;49.130;9.218;2023-08-01T00:20:01;50.38;48.13;54.73;;
61249;Laerm;47119;49.130;9.218;2023-08-01T00:22:29;50.62;48.23;57.49;;
61249;Laerm;47119;49.130;9.218;2023-08-01T00:24:57;50.33;47.85;58.45;;
61249;Laerm;47119;49.130;9.218;2023-08-01T00:27:24;51.62;47.65;60.61;;
61249;Laerm;47119;49.130;9.218;2023-08-01T00:29:53;51.75;47.65;59.02;;
61249;Laerm;47119;49.130;9.218;2023-08-01T00:32:22;54.76;48.66;61.74;;
61249;Laerm;47119;49.130;9.218;2023-08-01T00:34:50;54.27;46.96;64.72;;
61249;Laerm;47119;49.130;9.218;2023-08-01T00:37:17;57.42;47.26;71.13;;
61249;Laerm;47119;49.130;9.218;2023-08-01T00:39:44;55.48;48.47;64.63;;
61249;Laerm;47119;49.130;9.218;2023-08-01T00:42:13;55.96;49.62;64.91;;
61249;Laerm;47119;49.130;9.218;2023-08-01T00:44:40;59.60;53.80;71.14;;
61249;Laerm;47119;49.130;9.218;2023-08-01T00:47:10;57.12;49.09;66.27;;
61249;Laerm;47119;49.130;9.218;2023-08-01T00:49:37;60.56;45.98;73.19;;
61249;Laerm;47119;49.130;9.218;2023-08-01T00:52:06;54.29;46.38;62.29;;
61249;Laerm;47119;49.130;9.218;2023-08-01T00:54:34;55.46;45.91;67.75;;
61249;Laerm;47119;49.130;9.218;2023-08-01T00:57:03;54.91;47.34;66.39;;
61249;Laerm;47119;49.130;9.218;2023-08-01T00:59:32;59.69;49.21;67.65;;
61249;Laerm;47119;49.130;9.218;2023-08-01T01:02:00;60.98;47.07;66.59;;
61249;Laerm;47119;49.130;9.218;2023-08-01T01:04:28;54.06;45.96;64.07;;
61249;Laerm;47119;49.130;9.218;2023-08-01T01:07:02;53.19;46.42;61.43;;
61249;Laerm;47119;49.130;9.218;2023-08-01T01:09:30;53.59;46.32;70.73;;
61249;Laerm;47119;49.130;9.218;2023-08-01T01:11:58;50.96;46.82;62.63;;
61249;Laerm;47119;49.130;9.218;2023-08-01T01:14:26;56.22;46.41;65.04;;
61249;Laerm;47119;49.130;9.218;2023-08-01T01:16:54;50.50;46.36;58.75;;
61249;Laerm;47119;49.130;9.218;2023-08-01T01:19:21;50.75;46.33;63.24;;
61249;Laerm;47119;49.130;9.218;2023-08-01T01:21:55;51.40;46.16;62.69;;
61249;Laerm;47119;49.130;9.218;2023-08-01T01:24:26;49.43;46.25;63.54;;
61249;Laerm;47119;49.130;9.218;2023-08-01T01:26:56;50.33;46.02;63.00;;
61249;Laerm;47119;49.130;9.218;2023-08-01T01:29:27;54.35;46.32;61.13;;
61249;Laerm;47119;49.130;9.218;2023-08-01T01:31:55;54.27;46.71;69.72;;
61249;Laerm;47119;49.130;9.218;2023-08-01T01:34:22;59.68;46.68;67.92;;
61249;Laerm;47119;49.130;9.218;2023-08-01T01:36:52;57.11;47.02;66.88;;
61249;Laerm;47119;49.130;9.218;2023-08-01T01:39:20;51.23;45.82;63.84;;
61249;Laerm;47119;49.130;9.218;2023-08-01T01:41:47;51.83;46.72;63.97;;
61249;Laerm;47119;49.130;9.218;2023-08-01T01:44:14;52.95;46.67;66.15;;
61249;Laerm;47119;49.130;9.218;2023-08-01T01:46:41;55.42;46.87;64.26;;
61249;Laerm;47119;49.130;9.218;2023-08-01T01:49:08;53.21;46.66;66.26;;
61249;Laerm;47119;49.130;9.218;2023-08-01T01:51:35;58.63;47.98;68.40;;
61249;Laerm;47119;49.130;9.218;2023-08-01T01:54:04;50.73;46.27;60.13;;
61249;Laerm;47119;49.130;9.218;2023-08-01T01:56:35;53.00;47.05;58.44;;
61249;Laerm;47119;49.130;9.218;2023-08-01T01:59:02;53.47;47.84;64.84;;
61249;Laerm;47119;49.130;9.218;2023-08-01T02:01:32;52.00;47.44;58.04;;
61249;Laerm;47119;49.130;9.218;2023-08-01T02:03:59;52.23;47.66;61.16;;
61249;Laerm;47119;49.130;9.218;2023-08-01T02:06:26;55.43;47.93;66.83;;
61249;Laerm;47119;49.130;9.218;2023-08-01T02:08:56;54.46;47.68;64.29;;
61249;Laerm;47119;49.130;9.218;2023-08-01T02:11:25;51.95;47.88;56.58;;
61249;Laerm;47119;49.130;9.218;2023-08-01T02:13:54;52.64;48.74;57.56;;
61249;Laerm;47119;49.130;9.218;2023-08-01T02:16:23;52.27;48.59;55.16;;
61249;Laerm;47119;49.130;9.218;2023-08-01T02:18:50;52.92;49.27;56.38;;
61249;Laerm;47119;49.130;9.218;2023-08-01T02:21:17;53.65;46.47;64.73;;
61249;Laerm;47119;49.130;9.218;2023-08-01T02:23:44;54.03;47.77;64.90;;
61249;Laerm;47119;49.130;9.218;2023-08-01T02:26:11;53.96;46.73;67.99;;
61249;Laerm;47119;49.130;9.218;2023-08-01T02:28:38;52.46;46.88;61.54;;
61249;Laerm;47119;49.130;9.218;2023-08-01T02:31:07;53.02;46.68;65.52;;
61249;Laerm;47119;49.130;9.218;2023-08-01T02:33:34;52.56;46.00;67.95;;
61249;Laerm;47119;49.130;9.218;2023-08-01T02:36:01;49.95;45.92;66.53;;
61249;Laerm;47119;49.130;9.218;2023-08-01T02:38:30;52.75;47.20;65.81;;
61249;Laerm;47119;49.130;9.218;2023-08-01T02:40:57;54.01;47.00;67.45;;
61249;Laerm;47119;49.130;9.218;2023-08-01T02:43:24;54.08;46.77;63.23;;
61249;Laerm;47119;49.130;9.218;2023-08-01T02:45:51;55.85;47.52;62.74;;
61249;Laerm;47119;49.130;9.218;2023-08-01T02:48:19;52.34;47.08;60.94;;
61249;Laerm;47119;49.130;9.218;2023-08-01T02:50:46;51.89;46.46;65.82;;
61249;Laerm;47119;49.130;9.218;2023-08-01T02:53:13;54.32;46.51;67.30;;
61249;Laerm;47119;49.130;9.218;2023-08-01T02:55:44;55.50;46.53;68.57;;
61249;Laerm;47119;49.130;9.218;2023-08-01T02:58:12;55.34;46.55;69.23;;
61249;Laerm;47119;49.130;9.218;2023-08-01T03:00:40;52.32;46.61;67.33;;
61249;Laerm;47119;49.130;9.218;2023-08-01T03:03:07;54.29;46.70;67.46;;
61249;Laerm;47119;49.130;9.218;2023-08-01T03:05:37;54.22;46.94;67.53;;
61249;Laerm;47119;49.130;9.218;2023-08-01T03:08:05;54.04;46.51;63.57;;
61249;Laerm;47119;49.130;9.218;2023-08-01T03:10:32;53.88;47.49;64.58;;
61249;Laerm;47119;49.130;9.218;2023-08-01T03:12:58;56.10;46.85;66.94;;
61249;Laerm;47119;49.130;9.218;2023-08-01T03:15:27;55.47;48.55;67.78;;
61249;Laerm;47119;49.130;9.218;2023-08-01T03:17:56;54.07;46.38;64.58;;
61249;Laerm;47119;49.130;9.218;2023-08-01T03:20:25;55.38;46.42;64.63;;
61249;Laerm;47119;49.130;9.218;2023-08-01T03:22:54;57.20;46.67;67.51;;
61249;Laerm;47119;49.130;9.218;2023-08-01T03:25:21;56.56;47.55;72.50;;
61249;Laerm;47119;49.130;9.218;2023-08-01T03:27:48;54.51;47.23;66.63;;
61249;Laerm;47119;49.130;9.218;2023-08-01T03:30:15;54.22;48.01;64.62;;
61249;Laerm;47119;49.130;9.218;2023-08-01T03:32:44;55.90;49.27;65.26;;
61249;Laerm;47119;49.130;9.218;2023-08-01T03:35:11;56.67;50.39;63.53;;
61249;Laerm;47119;49.130;9.218;2023-08-01T03:37:39;60.16;49.05;74.36;;
61249;Laerm;47119;49.130;9.218;2023-08-01T03:40:10;54.03;46.68;67.26;;
61249;Laerm;47119;49.130;9.218;2023-08-01T03:42:37;55.36;45.92;66.26;;
61249;Laerm;47119;49.130;9.218;2023-08-01T03:45:07;54.74;47.99;65.95;;
61249;Laerm;47119;49.130;9.218;2023-08-01T10:12:50;46.59;45.26;47.80;;
61249;Laerm;47119;49.130;9.218;2023-08-01T10:15:21;46.58;45.41;47.66;;
61249;Laerm;47119;49.130;9.218;2023-08-01T10:17:51;46.58;45.44;47.83;;
61249;Laerm;47119;49.130;9.218;2023-08-01T10:20:20;46.58;45.19;47.64;;
61249;Laerm;47119;49.130;9.218;2023-08-01T10:22:49;46.59;45.46;47.75;;
61249;Laerm;47119;49.130;9.218;2023-08-01T10:25:19;46.58;45.04;47.66;;
61249;Laerm;47119;49.130;9.218;2023-08-01T10:27:59;46.57;45.22;47.71;;
61249;Laerm;47119;49.130;9.218;2023-08-01T10:30:27;46.57;45.27;47.63;;
61249;Laerm;47119;49.130;9.218;2023-08-01T10:33:00;46.56;45.53;47.65;;
61249;Laerm;47119;49.130;9.218;2023-08-01T10:35:34;46.56;45.43;47.68;;
61249;Laerm;47119;49.130;9.218;2023-08-01T10:38:06;46.54;45.23;47.58;;
61249;Laerm;47119;49.130;9.218;2023-08-01T10:40:37;46.54;45.52;47.57;;
61249;Laerm;47119;49.130;9.218;2023-08-01T10:43:19;46.54;45.42;48.02;;
61249;Laerm;47119;49.130;9.218;2023-08-01T10:45:48;46.54;45.15;47.68;;
61249;Laerm;47119;49.130;9.218;2023-08-01T10:48:15;46.52;45.32;47.52;;
61249;Laerm;47119;49.130;9.218;2023-08-01T10:50:42;46.51;45.37;47.60;;
61249;Laerm;47119;49.130;9.218;2023-08-01T10:53:10;46.51;45.21;47.63;;
61249;Laerm;47119;49.130;9.218;2023-08-01T10:55:45;46.50;45.39;47.60;;
61249;Laerm;47119;49.130;9.218;2023-08-01T10:58:16;46.50;45.00;47.81;;
61249;Laerm;47119;49.130;9.218;2023-08-01T11:00:43;46.51;45.39;47.64;;
61249;Laerm;47119;49.130;9.218;2023-08-01T11:03:16;46.51;45.32;47.59;;
61249;Laerm;47119;49.130;9.218;2023-08-01T11:05:57;46.51;45.33;47.65;;
61249;Laerm;47119;49.130;9.218;2023-08-01T11:08:35;46.51;45.26;47.53;;
61249;Laerm;47119;49.130;9.218;2023-08-01T11:11:05;46.53;45.55;47.54;;
61249;Laerm;47119;49.130;9.218;2023-08-01T11:13:34;46.52;45.48;47.76;;
61249;Laerm;47119;49.130;9.218;2023-08-01T11:16:02;46.52;45.44;47.63;;
61249;Laerm;47119;49.130;9.218;2023-08-01T11:18:30;46.51;45.40;47.55;;
61249;Laerm;47119;49.130;9.218;2023-08-01T11:20:57;46.50;45.37;47.57;;
61249;Laerm;47119;49.130;9.218;2023-08-01T11:23:29;46.50;45.32;47.49;;
61249;Laerm;47119;49.130;9.218;2023-08-01T11:26:00;46.51;45.44;47.52;;
61249;Laerm;47119;49.130;9.218;2023-08-01T11:28:27;46.51;45.27;47.59;;
61249;Laerm;47119;49.130;9.218;2023-08-01T11:30:55;46.53;45.14;47.62;;
61249;Laerm;47119;49.130;9.218;2023-08-01T11:33:23;46.53;45.37;47.56;;
61249;Laerm;47119;49.130;9.218;2023-08-01T11:35:52;46.53;45.24;47.57;;
61249;Laerm;47119;49.130;9.218;2023-08-01T11:54:51;46.48;45.21;47.42;;
61249;Laerm;47119;49.130;9.218;2023-08-01T12:42:12;46.51;45.24;47.47;;
61249;Laerm;47119;49.130;9.218;2023-08-01T12:44:39;46.51;45.41;47.85;;
61249;Laerm;47119;49.130;9.218;2023-08-01T13:07:50;46.50;45.45;47.48;;
61249;Laerm;47119;49.130;9.218;2023-08-01T13:10:19;46.48;45.48;47.57;;
61249;Laerm;47119;49.130;9.218;2023-08-01T13:12:46;46.47;45.37;47.50;;
61249;Laerm;47119;49.130;9.218;2023-08-01T13:15:13;46.47;45.46;47.44;;
61249;Laerm;47119;49.130;9.218;2023-08-01T14:42:26;46.48;45.38;47.78;;
61249;Laerm;47119;49.130;9.218;2023-08-01T14:45:37;46.48;45.31;47.54;;
61249;Laerm;47119;49.130;9.218;2023-08-01T14:54:05;46.46;45.32;47.63;;
61249;Laerm;47119;49.130;9.218;2023-08-01T14:57:11;46.48;45.26;47.56;;
61249;Laerm;47119;49.130;9.218;2023-08-01T14:59:41;46.48;45.19;47.48;;
61249;Laerm;47119;49.130;9.218;2023-08-01T15:02:15;46.49;45.41;47.57;;
61249;Laerm;47119;49.130;9.218;2023-08-01T15:04:55;46.49;45.17;47.71;;
61249;Laerm;47119;49.130;9.218;2023-08-01T15:08:17;46.49;45.29;47.74;;
61249;Laerm;47119;49.130;9.218;2023-08-01T15:12:24;46.47;45.30;47.53;;
61249;Laerm;47119;49.130;9.218;2023-08-01T15:15:36;46.47;45.39;47.54;;
61249;Laerm;47119;49.130;9.218;2023-08-01T15:21:28;46.47;45.24;47.45;;
61249;Laerm;47119;49.130;9.218;2023-08-01T15:34:28;46.48;45.31;47.48;;
